Time;durP1;ratioP1;P1;durP2;ratioP2;P2;SDS_P1;SDS_P2;PMS_P1;PMS_P2;Temp;Humidity;BMP_temperature;BMP_pressure;BME280_temperature;BME280_humidity;BME280_pressure;Samples;Min_cycle;Max_cycle;Signal;HPM_P1;HPM_P2
2024/03/23 18:18:31;;;;;;;19.27;9.15;;;25.00;99.90;;;;;;5111130;27;20689;-64
2024/03/23 18:21:00;;;;;;;12.93;6.90;;;24.10;99.90;;;;;;5110480;28;20429;-65
2024/03/23 18:23:26;;;;;;;14.27;7.22;;;23.80;99.90;;;;;;5110496;28;20485;-65
2024/03/23 18:25:52;;;;;;;12.47;6.43;;;23.80;99.90;;;;;;5110248;28;20425;-66
2024/03/23 18:28:19;;;;;;;11.18;5.95;;;23.80;99.90;;;;;;5110496;28;20421;-70
2024/03/23 18:30:45;;;;;;;10.90;5.88;;;23.80;99.90;;;;;;5110110;28;20904;-68
2024/03/23 18:33:11;;;;;;;12.23;6.07;;;23.80;99.90;;;;;;5110426;28;20434;-66
2024/03/23 18:35:38;;;;;;;10.77;5.22;;;23.80;99.90;;;;;;5110204;28;20474;-69
2024/03/23 18:38:05;;;;;;;11.27;5.30;;;23.80;99.90;;;;;;5110281;28;20429;-69
2024/03/23 18:40:31;;;;;;;9.73;5.30;;;23.80;99.90;;;;;;5110068;28;20433;-64
2024/03/23 18:42:57;;;;;;;11.63;5.53;;;23.90;99.90;;;;;;5110004;28;20432;-65
2024/03/23 18:45:23;;;;;;;8.18;4.32;;;23.90;99.90;;;;;;5109847;28;20417;-65
2024/03/23 18:47:50;;;;;;;10.60;4.32;;;23.80;99.90;;;;;;5109539;28;20490;-65
2024/03/23 18:50:15;;;;;;;9.23;4.47;;;23.70;99.90;;;;;;5109870;28;20425;-65
2024/03/23 18:52:43;;;;;;;8.60;4.33;;;23.70;99.90;;;;;;5109775;28;20478;-65
2024/03/23 18:55:09;;;;;;;7.53;4.20;;;23.70;99.90;;;;;;5109655;28;20470;-65
2024/03/23 18:57:36;;;;;;;7.33;4.03;;;23.60;99.90;;;;;;5109591;28;20776;-65
2024/03/23 19:00:02;;;;;;;11.23;4.85;;;23.60;99.90;;;;;;5109629;28;20425;-65
2024/03/23 19:02:29;;;;;;;8.55;4.40;;;23.60;99.90;;;;;;5109236;28;20901;-65
2024/03/23 19:04:55;;;;;;;7.85;4.10;;;23.60;99.90;;;;;;5109482;28;20474;-65
2024/03/23 19:07:21;;;;;;;9.33;4.27;;;23.60;99.90;;;;;;5109461;28;20425;-65
2024/03/23 19:09:50;;;;;;;7.33;4.33;;;23.60;99.90;;;;;;5109550;28;20424;-65
2024/03/23 19:12:17;;;;;;;7.40;4.15;;;23.60;99.90;;;;;;5109135;28;20914;-65
2024/03/23 19:14:43;;;;;;;7.00;4.30;;;23.60;99.90;;;;;;5109059;28;20937;-65
2024/03/23 19:17:10;;;;;;;7.05;4.03;;;23.60;99.90;;;;;;5118651;28;20431;-64
2024/03/23 19:19:35;;;;;;;6.70;3.80;;;23.60;99.90;;;;;;5129763;27;20476;-64
2024/03/23 19:22:02;;;;;;;7.72;4.10;;;23.60;99.90;;;;;;5129645;28;20424;-64
2024/03/23 19:24:28;;;;;;;5.85;3.72;;;23.60;99.90;;;;;;5129643;28;20428;-65
2024/03/23 19:26:56;;;;;;;4.80;3.40;;;23.60;99.90;;;;;;5129466;28;20426;-65
2024/03/23 19:29:21;;;;;;;8.30;4.30;;;23.60;99.90;;;;;;5118516;28;20477;-65
2024/03/23 19:31:48;;;;;;;5.47;3.70;;;23.50;99.90;;;;;;5115950;28;20424;-65
2024/03/23 19:34:15;;;;;;;6.97;4.20;;;23.50;99.90;;;;;;5115700;28;20473;-65
2024/03/23 19:36:41;;;;;;;5.35;3.63;;;23.50;99.90;;;;;;5115602;28;20543;-65
2024/03/23 19:39:08;;;;;;;5.03;3.00;;;23.50;99.90;;;;;;5115718;28;20514;-64
2024/03/23 19:41:34;;;;;;;5.72;3.40;;;23.50;99.90;;;;;;5115784;28;20420;-64
2024/03/23 19:44:02;;;;;;;6.47;3.63;;;23.50;99.90;;;;;;5115645;28;20428;-65
2024/03/23 19:46:27;;;;;;;4.63;3.35;;;23.50;99.90;;;;;;5115583;28;20451;-65
2024/03/23 19:48:54;;;;;;;5.47;3.40;;;23.50;99.90;;;;;;5115747;28;20888;-65
2024/03/23 19:51:20;;;;;;;5.25;3.28;;;23.50;99.90;;;;;;5115501;28;20469;-66
2024/03/23 19:53:51;;;;;;;5.30;3.30;;;23.50;99.90;;;;;;5115632;28;20424;-66
2024/03/23 19:56:16;;;;;;;5.15;3.38;;;23.50;99.90;;;;;;5115608;28;20424;-65
2024/03/23 19:58:43;;;;;;;5.13;3.20;;;23.50;99.90;;;;;;5115237;28;20931;-66
2024/03/23 20:01:14;;;;;;;6.70;3.13;;;23.50;99.90;;;;;;5115398;28;20428;-66
2024/03/23 20:03:41;;;;;;;6.50;3.65;;;23.60;99.90;;;;;;5115409;28;20428;-65
2024/03/23 20:06:08;;;;;;;5.55;3.30;;;23.60;99.90;;;;;;5114805;28;20908;-65
2024/03/23 20:08:35;;;;;;;5.50;3.00;;;23.60;99.90;;;;;;5115315;28;20431;-66
2024/03/23 20:11:01;;;;;;;6.07;3.40;;;23.60;99.90;;;;;;5115406;28;20456;-66
2024/03/23 20:13:27;;;;;;;4.72;3.00;;;23.60;99.90;;;;;;5114799;28;20464;-66
2024/03/23 20:15:53;;;;;;;4.18;3.17;;;23.60;99.90;;;;;;5115603;28;20420;-67
2024/03/23 20:18:21;;;;;;;5.97;3.30;;;23.60;99.90;;;;;;5115172;28;20424;-66
2024/03/23 20:20:49;;;;;;;4.00;3.10;;;23.60;99.90;;;;;;5115658;28;20420;-66
2024/03/23 20:23:16;;;;;;;3.85;3.33;;;23.60;99.90;;;;;;5114915;28;20510;-66
2024/03/23 20:25:50;;;;;;;4.20;2.80;;;23.60;99.90;;;;;;5115195;28;20462;-65
2024/03/23 20:28:16;;;;;;;4.10;3.00;;;23.60;99.90;;;;;;5114962;28;20424;-66
2024/03/23 20:30:42;;;;;;;6.05;3.10;;;23.60;99.90;;;;;;5114600;28;20830;-65
2024/03/23 20:33:09;;;;;;;4.90;3.27;;;23.60;99.90;;;;;;5114695;28;20811;-65
2024/03/23 20:35:36;;;;;;;4.60;3.10;;;23.60;99.90;;;;;;5114266;28;20459;-66
2024/03/23 20:38:03;;;;;;;3.03;2.70;;;23.60;99.90;;;;;;5114514;28;20432;-66
2024/03/23 20:40:29;;;;;;;4.78;3.00;;;23.60;99.90;;;;;;5113568;28;20420;-66
2024/03/23 20:43:07;;;;;;;5.30;3.08;;;23.60;99.90;;;;;;5114442;28;20430;-66
2024/03/23 20:45:32;;;;;;;4.55;2.70;;;23.60;99.90;;;;;;5114344;28;20496;-66
2024/03/23 20:47:59;;;;;;;4.30;2.80;;;23.60;99.90;;;;;;5114365;28;20919;-66
2024/03/23 20:50:25;;;;;;;4.13;3.00;;;23.60;99.90;;;;;;5114116;28;20424;-66
2024/03/23 20:52:54;;;;;;;4.25;3.00;;;23.60;99.90;;;;;;5114303;27;20485;-66
2024/03/23 20:55:20;;;;;;;4.40;2.97;;;23.60;99.90;;;;;;5114169;28;20416;-66
2024/03/23 20:57:46;;;;;;;3.45;2.97;;;23.60;99.90;;;;;;5113928;28;20586;-66
2024/03/23 21:00:14;;;;;;;3.97;2.75;;;23.60;99.90;;;;;;5114094;28;20423;-66
2024/03/23 21:02:40;;;;;;;3.85;2.70;;;23.60;99.90;;;;;;5114052;28;20788;-65
2024/03/23 21:05:07;;;;;;;3.70;3.00;;;23.60;99.90;;;;;;5113982;28;20477;-66
2024/03/23 21:07:34;;;;;;;4.47;2.70;;;23.60;99.90;;;;;;5114037;28;20424;-64
2024/03/23 21:10:02;;;;;;;4.30;2.50;;;23.60;99.90;;;;;;5113912;28;20423;-64
2024/03/23 21:12:29;;;;;;;5.20;2.40;;;23.60;99.90;;;;;;5114174;28;20428;-67
2024/03/23 21:14:54;;;;;;;3.60;2.40;;;23.60;99.90;;;;;;5113777;28;20459;-66
2024/03/23 21:17:21;;;;;;;5.77;2.70;;;23.60;99.90;;;;;;5113428;28;20876;-66
2024/03/23 21:19:47;;;;;;;4.10;2.40;;;23.60;99.90;;;;;;5113716;28;20427;-67
2024/03/23 21:22:14;;;;;;;3.70;2.50;;;23.60;99.90;;;;;;5113347;28;20800;-66
2024/03/23 21:24:39;;;;;;;2.63;2.20;;;23.60;99.90;;;;;;5113360;28;20885;-66
2024/03/23 21:27:07;;;;;;;4.38;2.50;;;23.60;99.90;;;;;;5113437;28;20473;-66
2024/03/23 21:29:33;;;;;;;3.67;2.22;;;23.60;99.90;;;;;;5113531;28;20419;-68
2024/03/23 21:32:00;;;;;;;4.55;2.30;;;23.70;99.90;;;;;;5113504;28;20424;-68
2024/03/23 21:34:26;;;;;;;7.28;2.30;;;23.60;99.90;;;;;;5113490;28;20477;-67
2024/03/23 21:36:54;;;;;;;4.25;2.15;;;23.40;99.90;;;;;;5113269;28;20432;-67
2024/03/23 21:39:19;;;;;;;6.50;2.40;;;23.30;99.90;;;;;;5113433;28;20531;-66
2024/03/23 21:41:47;;;;;;;3.72;2.30;;;23.40;99.90;;;;;;5113059;28;20518;-66
2024/03/23 21:44:14;;;;;;;6.30;2.13;;;23.50;99.90;;;;;;5113249;28;20467;-66
2024/03/23 21:46:40;;;;;;;3.42;2.00;;;23.60;99.90;;;;;;5112856;28;20977;-66
2024/03/23 21:49:06;;;;;;;4.27;2.30;;;23.60;99.90;;;;;;5112898;28;20901;-67
2024/03/23 21:51:34;;;;;;;5.50;2.20;;;23.60;99.90;;;;;;5112952;28;20428;-66
2024/03/23 21:54:02;;;;;;;5.25;2.03;;;23.70;99.90;;;;;;5113146;28;20455;-66
2024/03/23 21:56:29;;;;;;;3.25;2.00;;;23.70;99.90;;;;;;5113129;28;20428;-66
2024/03/23 21:58:57;;;;;;;3.92;2.13;;;23.70;99.90;;;;;;5113146;28;20501;-66
2024/03/23 22:01:25;;;;;;;2.38;1.90;;;23.70;99.90;;;;;;5113116;28;20463;-66
2024/03/23 22:03:51;;;;;;;2.80;2.30;;;23.70;99.90;;;;;;5113079;28;20427;-66
2024/03/23 22:06:18;;;;;;;4.57;2.05;;;23.80;99.90;;;;;;5112942;28;20508;-66
2024/03/23 22:08:44;;;;;;;8.70;2.30;;;23.80;99.90;;;;;;5113546;28;20416;-68
